Time;durP1;ratioP1;P1;durP2;ratioP2;P2;SDS_P1;SDS_P2;PMS_P1;PMS_P2;Temp;Humidity;BMP_temperature;BMP_pressure;BME280_temperature;BME280_humidity;BME280_pressure;Samples;Min_cycle;Max_cycle;Signal;HPM_P1;HPM_P2
2023/07/07 00:00:55;;;;;;;5.47;2.97;;;18.10;66.00;;;;;;5100794;28;21010;-77
2023/07/07 00:03:24;;;;;;;9.90;3.03;;;18.10;66.20;;;;;;5097463;28;20474;-77
2023/07/07 00:05:53;;;;;;;6.10;3.33;;;18.00;66.20;;;;;;5099398;28;21172;-78
2023/07/07 00:08:21;;;;;;;6.80;3.30;;;18.10;66.40;;;;;;5098268;28;20462;-78
2023/07/07 00:10:50;;;;;;;6.57;3.07;;;18.10;66.40;;;;;;5103628;28;20519;-81
2023/07/07 00:13:18;;;;;;;5.83;2.77;;;18.10;66.40;;;;;;5100025;28;20842;-78
2023/07/07 00:15:47;;;;;;;6.17;2.87;;;18.10;66.20;;;;;;5103457;28;20456;-81
2023/07/07 00:18:26;;;;;;;5.77;3.10;;;18.10;66.20;;;;;;5101669;28;20478;-79
2023/07/07 00:20:56;;;;;;;6.27;3.03;;;18.00;66.20;;;;;;5095568;28;20955;-77
2023/07/07 00:23:26;;;;;;;6.80;3.00;;;18.00;66.20;;;;;;5102000;28;20889;-79
2023/07/07 00:26:01;;;;;;;5.90;3.00;;;18.00;66.40;;;;;;5101144;28;20458;-80
2023/07/07 00:28:30;;;;;;;6.33;3.20;;;18.00;66.20;;;;;;5105089;28;20564;-81
2023/07/07 00:30:58;;;;;;;10.70;3.80;;;17.90;66.40;;;;;;5101001;28;20470;-79
2023/07/07 00:33:27;;;;;;;8.20;3.60;;;17.90;66.40;;;;;;5099910;28;20458;-80
2023/07/07 00:35:57;;;;;;;7.57;3.60;;;17.90;66.20;;;;;;5100751;28;20453;-79
2023/07/07 00:38:25;;;;;;;10.20;3.77;;;17.90;66.40;;;;;;5099110;28;20522;-80
2023/07/07 00:40:54;;;;;;;6.50;3.30;;;17.90;66.40;;;;;;5102639;27;20464;-80
2023/07/07 00:43:22;;;;;;;9.30;3.47;;;17.80;66.40;;;;;;5104028;28;20457;-79
2023/07/07 00:45:50;;;;;;;6.30;3.17;;;17.90;66.40;;;;;;5097718;28;20469;-78
2023/07/07 00:48:21;;;;;;;5.30;2.97;;;17.80;66.40;;;;;;5103360;28;20458;-78
2023/07/07 00:50:55;;;;;;;6.10;3.40;;;17.80;66.40;;;;;;5101310;28;20519;-78
2023/07/07 00:53:25;;;;;;;7.17;3.40;;;17.80;66.40;;;;;;5101177;28;20449;-79
2023/07/07 00:55:58;;;;;;;6.60;3.70;;;17.80;66.30;;;;;;5101211;28;20447;-79
2023/07/07 00:58:26;;;;;;;7.43;3.80;;;17.70;66.40;;;;;;5095891;28;20470;-79
2023/07/07 01:01:00;;;;;;;6.93;3.73;;;17.70;66.30;;;;;;5099789;28;20477;-78
2023/07/07 01:03:33;;;;;;;6.50;3.50;;;17.60;66.40;;;;;;5096482;28;20596;-81
2023/07/07 01:06:06;;;;;;;6.70;3.17;;;17.60;66.50;;;;;;5096091;28;20473;-80
2023/07/07 01:08:38;;;;;;;7.03;3.47;;;17.60;66.50;;;;;;5100653;28;20556;-78
2023/07/07 01:11:06;;;;;;;6.87;2.70;;;17.60;66.40;;;;;;5101272;28;20456;-78
2023/07/07 01:13:34;;;;;;;7.53;3.90;;;17.50;66.40;;;;;;5101539;28;20456;-78
2023/07/07 01:16:09;;;;;;;6.93;3.57;;;17.50;66.50;;;;;;5095094;28;20460;-81
2023/07/07 01:18:45;;;;;;;7.10;3.50;;;17.40;66.50;;;;;;5101029;28;20481;-79
2023/07/07 01:21:29;;;;;;;5.73;2.93;;;17.40;66.50;;;;;;5100763;28;20504;-79
2023/07/07 01:24:35;;;;;;;7.43;3.60;;;17.40;66.60;;;;;;5097937;28;20491;-79
2023/07/07 01:27:32;;;;;;;5.77;3.17;;;17.40;66.60;;;;;;5102044;28;21008;-81
2023/07/07 01:30:24;;;;;;;7.37;3.70;;;17.30;66.60;;;;;;5102898;28;20458;-80
2023/07/07 01:32:53;;;;;;;7.13;3.73;;;17.30;66.60;;;;;;5104896;28;20481;-78
2023/07/07 01:35:23;;;;;;;5.90;3.13;;;17.30;66.60;;;;;;5101437;28;21299;-77
2023/07/07 01:37:54;;;;;;;6.67;4.10;;;17.30;66.60;;;;;;5098366;28;20569;-78
2023/07/07 01:40:24;;;;;;;6.20;3.50;;;17.30;66.60;;;;;;5101762;28;20464;-78
2023/07/07 01:42:59;;;;;;;6.50;3.87;;;17.20;66.50;;;;;;5102398;28;20465;-78
2023/07/07 01:45:38;;;;;;;7.10;3.27;;;17.20;66.60;;;;;;5099953;28;20451;-78
2023/07/07 01:48:16;;;;;;;6.90;3.50;;;17.10;66.70;;;;;;5111897;27;20451;-78
2023/07/07 01:50:46;;;;;;;7.90;4.03;;;17.10;66.70;;;;;;5106822;27;20456;-78
2023/07/07 01:53:19;;;;;;;8.07;3.80;;;17.00;66.80;;;;;;5105579;28;21137;-76
2023/07/07 01:55:52;;;;;;;6.03;3.30;;;16.90;66.90;;;;;;5105451;27;20464;-77
2023/07/07 01:58:21;;;;;;;6.37;3.57;;;16.90;66.90;;;;;;5105016;28;20545;-78
2023/07/07 02:00:52;;;;;;;8.60;3.53;;;16.80;66.90;;;;;;5106142;28;20467;-77
2023/07/07 02:03:20;;;;;;;9.00;3.90;;;16.80;66.90;;;;;;5106718;28;20460;-79
2023/07/07 02:05:48;;;;;;;9.07;3.70;;;16.70;67.00;;;;;;5102471;27;20463;-80
2023/07/07 02:08:16;;;;;;;9.40;3.50;;;16.70;67.10;;;;;;5104857;28;20452;-78
2023/07/07 02:10:44;;;;;;;6.60;3.67;;;16.60;67.10;;;;;;5107282;27;20452;-79
2023/07/07 02:13:13;;;;;;;7.93;3.57;;;16.60;67.30;;;;;;5098162;28;20488;-78
2023/07/07 02:15:41;;;;;;;8.20;3.90;;;16.60;67.50;;;;;;5100729;28;20567;-77
2023/07/07 02:18:10;;;;;;;6.93;3.97;;;16.60;67.60;;;;;;5104055;28;20563;-80
2023/07/07 02:20:39;;;;;;;7.13;3.53;;;16.70;67.60;;;;;;5107318;28;20874;-80
2023/07/07 02:23:06;;;;;;;9.90;3.87;;;16.70;67.60;;;;;;5099463;28;20465;-77
2023/07/07 02:25:36;;;;;;;6.87;3.87;;;16.70;67.60;;;;;;5101813;28;20480;-78
2023/07/07 02:28:04;;;;;;;6.70;3.63;;;16.60;67.60;;;;;;5099597;28;20474;-78
2023/07/07 02:30:35;;;;;;;7.87;4.50;;;16.60;67.60;;;;;;5102207;27;21040;-79
2023/07/07 02:33:03;;;;;;;8.40;3.63;;;16.60;67.70;;;;;;5107047;28;20467;-78
2023/07/07 02:35:34;;;;;;;6.10;3.57;;;16.50;67.80;;;;;;5108351;28;20837;-77
2023/07/07 02:38:01;;;;;;;7.00;3.83;;;16.50;67.80;;;;;;5106082;28;20448;-78
2023/07/07 02:40:29;;;;;;;10.10;3.50;;;16.50;67.80;;;;;;5102408;28;20452;-80
2023/07/07 02:42:57;;;;;;;6.90;3.50;;;16.40;67.80;;;;;;5104547;28;20535;-79
2023/07/07 02:45:43;;;;;;;7.53;3.83;;;16.40;67.80;;;;;;5105903;28;20456;-82
2023/07/07 02:48:12;;;;;;;6.37;3.30;;;16.40;68.00;;;;;;5104212;28;20517;-79
2023/07/07 02:50:41;;;;;;;6.43;3.90;;;16.40;68.00;;;;;;5103208;27;20451;-79
2023/07/07 02:53:09;;;;;;;7.77;3.90;;;16.40;68.00;;;;;;5111940;27;20488;-79
2023/07/07 02:55:37;;;;;;;7.90;3.90;;;16.40;67.90;;;;;;5105191;28;20456;-80
2023/07/07 02:58:05;;;;;;;7.43;3.63;;;16.50;67.90;;;;;;5105070;28;20579;-82
2023/07/07 03:00:33;;;;;;;6.40;3.63;;;16.50;67.90;;;;;;5108436;28;20877;-79
2023/07/07 03:03:01;;;;;;;8.77;3.90;;;16.50;67.80;;;;;;5108808;28;20466;-80
2023/07/07 03:05:31;;;;;;;7.30;3.90;;;16.50;67.80;;;;;;5104387;28;20456;-78
2023/07/07 03:08:01;;;;;;;8.60;4.23;;;16.50;67.70;;;;;;5112231;27;20453;-79
2023/07/07 03:10:31;;;;;;;7.30;3.60;;;16.50;67.60;;;;;;5104728;28;20487;-79
2023/07/07 03:12:59;;;;;;;6.73;4.30;;;16.40;67.70;;;;;;5102162;28;20531;-81
2023/07/07 03:15:29;;;;;;;7.50;3.37;;;16.40;67.70;;;;;;5103641;28;20487;-80
2023/07/07 03:17:57;;;;;;;8.63;3.77;;;16.40;67.70;;;;;;5104428;27;21235;-79
2023/07/07 03:20:26;;;;;;;8.63;3.73;;;16.40;67.70;;;;;;5116054;27;20484;-80
2023/07/07 03:22:56;;;;;;;9.30;4.07;;;16.40;67.70;;;;;;5100045;28;20462;-78
2023/07/07 03:25:27;;;;;;;6.10;3.60;;;16.40;67.70;;;;;;5112373;27;21832;-78
2023/07/07 03:27:55;;;;;;;8.40;4.23;;;16.40;67.70;;;;;;5099553;28;20545;-78
2023/07/07 03:30:35;;;;;;;7.07;4.17;;;16.30;67.60;;;;;;5103884;28;20460;-80
2023/07/07 03:33:13;;;;;;;7.57;4.13;;;16.30;67.70;;;;;;5105940;28;20858;-78
2023/07/07 03:35:44;;;;;;;8.67;4.00;;;16.30;67.80;;;;;;5105847;28;20517;-80
2023/07/07 03:38:14;;;;;;;8.67;3.90;;;16.30;67.80;;;;;;5100998;28;20515;-78
2023/07/07 03:40:52;;;;;;;10.13;3.77;;;16.30;67.80;;;;;;5099827;28;20472;-77
2023/07/07 03:43:24;;;;;;;10.77;4.10;;;16.30;67.70;;;;;;5106415;28;20565;-80
2023/07/07 03:45:52;;;;;;;9.40;3.87;;;16.30;67.60;;;;;;5107171;28;21192;-77
2023/07/07 03:48:20;;;;;;;8.40;3.60;;;16.20;67.60;;;;;;5107411;28;20493;-76
2023/07/07 03:50:56;;;;;;;9.10;3.77;;;16.10;67.70;;;;;;5110303;28;20789;-78
2023/07/07 03:53:25;;;;;;;9.43;3.80;;;16.10;67.80;;;;;;5106629;27;20462;-80
2023/07/07 03:56:09;;;;;;;9.50;3.80;;;16.00;67.90;;;;;;5105617;28;21243;-79
2023/07/07 03:58:38;;;;;;;7.77;3.77;;;16.00;68.00;;;;;;5091662;28;20495;-81
2023/07/07 04:01:09;;;;;;;8.13;3.73;;;16.00;68.00;;;;;;5105847;28;20484;-79
2023/07/07 04:03:37;;;;;;;13.13;4.80;;;16.10;68.10;;;;;;5098708;28;20460;-79
2023/07/07 04:06:06;;;;;;;12.47;3.80;;;16.10;68.10;;;;;;5103185;27;20458;-78
2023/07/07 04:08:34;;;;;;;9.03;4.13;;;16.10;68.00;;;;;;5106764;28;20459;-77
2023/07/07 04:11:04;;;;;;;11.83;4.60;;;16.20;68.00;;;;;;5099068;28;20456;-80
2023/07/07 04:13:36;;;;;;;8.17;3.70;;;16.20;68.00;;;;;;5102883;28;20488;-81
2023/07/07 04:16:06;;;;;;;7.40;3.87;;;16.30;68.10;;;;;;5103314;28;20542;-79
2023/07/07 04:18:35;;;;;;;10.10;3.67;;;16.30;68.10;;;;;;5104460;28;20540;-81
2023/07/07 04:21:06;;;;;;;8.10;3.97;;;16.40;68.10;;;;;;5104058;28;20495;-80
2023/07/07 04:23:36;;;;;;;6.53;3.50;;;16.40;68.20;;;;;;5106056;28;20463;-80
2023/07/07 04:26:05;;;;;;;6.80;3.73;;;16.50;68.20;;;;;;5100618;28;20464;-80
2023/07/07 04:28:36;;;;;;;7.67;4.40;;;16.60;68.20;;;;;;5108869;27;20845;-78
2023/07/07 04:31:05;;;;;;;9.97;4.47;;;16.70;68.00;;;;;;5101420;28;20472;-80
2023/07/07 04:33:35;;;;;;;10.00;4.10;;;16.80;68.00;;;;;;5098231;28;20939;-78
2023/07/07 04:36:05;;;;;;;13.03;4.20;;;17.00;67.90;;;;;;5105852;28;20456;-79
2023/07/07 04:38:33;;;;;;;7.33;3.77;;;17.10;67.90;;;;;;5103957;28;20452;-79
2023/07/07 04:41:10;;;;;;;10.80;4.73;;;17.20;68.00;;;;;;5101135;28;20480;-79
2023/07/07 04:43:43;;;;;;;14.07;4.60;;;17.30;67.70;;;;;;5098725;28;20452;-78
2023/07/07 04:46:14;;;;;;;9.37;4.73;;;17.40;67.70;;;;;;5098440;28;20457;-80
2023/07/07 04:48:42;;;;;;;10.60;4.80;;;17.50;67.70;;;;;;5095799;28;20461;-81
2023/07/07 04:51:12;;;;;;;8.60;4.50;;;17.60;67.70;;;;;;5104351;28;20460;-80
2023/07/07 04:53:40;;;;;;;10.07;5.40;;;17.70;67.50;;;;;;5102030;28;20496;-80
2023/07/07 04:56:10;;;;;;;14.43;4.40;;;17.80;67.60;;;;;;5097554;28;20462;-80
2023/07/07 04:58:41;;;;;;;7.80;4.60;;;17.90;67.60;;;;;;5105333;28;20450;-81
2023/07/07 05:01:11;;;;;;;9.43;4.50;;;18.10;67.60;;;;;;5099619;28;20477;-80
2023/07/07 05:03:40;;;;;;;9.07;3.87;;;18.20;67.50;;;;;;5099682;28;20454;-80
2023/07/07 05:06:08;;;;;;;8.83;4.20;;;18.40;67.40;;;;;;5099084;28;20471;-80
2023/07/07 05:08:39;;;;;;;7.43;4.40;;;18.60;67.40;;;;;;5103295;28;20459;-80
2023/07/07 05:11:10;;;;;;;11.23;4.50;;;18.80;67.20;;;;;;5101511;28;20454;-79
2023/07/07 05:13:39;;;;;;;12.10;4.97;;;19.00;67.20;;;;;;5093529;28;20457;-80
2023/07/07 05:16:10;;;;;;;10.53;5.43;;;19.20;67.10;;;;;;5099655;28;20960;-80
2023/07/07 05:18:38;;;;;;;8.80;4.70;;;19.40;67.00;;;;;;5104667;28;21251;-80
2023/07/07 05:21:08;;;;;;;10.70;4.83;;;19.50;67.00;;;;;;5105587;28;20486;-81
2023/07/07 05:23:37;;;;;;;6.40;4.10;;;19.60;66.90;;;;;;5109405;28;20450;-79
2023/07/07 05:26:06;;;;;;;7.97;4.40;;;19.70;66.80;;;;;;5104440;28;20459;-80
2023/07/07 05:28:34;;;;;;;7.87;4.37;;;19.90;66.70;;;;;;5104095;28;20971;-80
2023/07/07 05:31:07;;;;;;;9.67;4.10;;;20.00;66.60;;;;;;5101672;28;20469;-79
2023/07/07 05:33:35;;;;;;;10.60;4.40;;;20.20;66.50;;;;;;5102051;27;20513;-79
2023/07/07 05:36:05;;;;;;;8.97;4.30;;;20.30;66.40;;;;;;5110282;28;20463;-79
2023/07/07 05:38:51;;;;;;;8.10;4.93;;;20.50;66.40;;;;;;5104105;28;20963;-79
2023/07/07 05:41:19;;;;;;;8.53;4.77;;;20.80;66.50;;;;;;5095377;28;21485;-81
2023/07/07 05:43:48;;;;;;;10.63;3.97;;;21.20;66.70;;;;;;5102467;28;20475;-80
2023/07/07 05:46:17;;;;;;;10.30;4.13;;;21.90;65.70;;;;;;5104500;28;20900;-80
2023/07/07 05:48:46;;;;;;;8.40;4.00;;;22.90;64.00;;;;;;5104009;28;20965;-80
2023/07/07 05:51:17;;;;;;;8.27;3.70;;;23.90;62.30;;;;;;5108286;28;21079;-81
2023/07/07 05:53:45;;;;;;;7.13;3.50;;;24.90;60.70;;;;;;5103387;28;21032;-80
2023/07/07 05:56:17;;;;;;;7.60;3.60;;;25.70;59.50;;;;;;5103055;28;20455;-80
2023/07/07 05:58:46;;;;;;;6.67;3.50;;;26.40;58.40;;;;;;5104133;28;20452;-80
2023/07/07 06:01:14;;;;;;;6.10;3.00;;;27.00;57.60;;;;;;5106518;28;20487;-79
2023/07/07 06:03:45;;;;;;;8.00;3.20;;;27.60;56.60;;;;;;5101315;28;20529;-79
2023/07/07 06:06:14;;;;;;;6.80;3.33;;;28.20;55.70;;;;;;5101895;28;20855;-80
2023/07/07 06:08:42;;;;;;;8.40;3.50;;;28.70;54.90;;;;;;5111289;28;20456;-81
2023/07/07 06:11:10;;;;;;;7.00;2.70;;;29.10;53.90;;;;;;5107577;28;20456;-81
2023/07/07 06:13:39;;;;;;;8.33;2.97;;;29.50;52.70;;;;;;5114582;27;20459;-79
2023/07/07 06:16:08;;;;;;;11.40;2.80;;;29.60;51.70;;;;;;5106774;28;20460;-80
2023/07/07 06:18:36;;;;;;;5.00;2.10;;;29.50;50.70;;;;;;5115763;27;20487;-79
2023/07/07 06:21:07;;;;;;;7.90;2.77;;;29.10;50.90;;;;;;5104487;28;20486;-79
2023/07/07 06:23:37;;;;;;;7.13;2.60;;;28.50;51.20;;;;;;5107725;28;20455;-78
2023/07/07 06:26:05;;;;;;;7.37;2.77;;;28.00;51.10;;;;;;5101733;28;20460;-80
2023/07/07 06:28:33;;;;;;;6.20;2.70;;;27.40;51.40;;;;;;5103540;28;21103;-77
2023/07/07 06:31:01;;;;;;;6.37;2.30;;;26.70;51.90;;;;;;5102317;28;20465;-78
2023/07/07 06:33:30;;;;;;;7.83;3.40;;;26.10;52.20;;;;;;5104511;28;20643;-82
2023/07/07 06:35:58;;;;;;;6.90;3.10;;;25.50;52.60;;;;;;5103214;28;20467;-81
2023/07/07 06:38:28;;;;;;;6.23;3.10;;;24.70;53.00;;;;;;5107164;28;21464;-79
2023/07/07 06:40:55;;;;;;;7.83;2.73;;;24.20;53.50;;;;;;5104500;28;20468;-79
2023/07/07 06:43:24;;;;;;;7.00;3.20;;;23.60;53.90;;;;;;5101406;28;20452;-79
2023/07/07 06:45:55;;;;;;;11.77;3.20;;;23.10;54.70;;;;;;5100927;27;20463;-80
2023/07/07 06:48:23;;;;;;;6.87;2.83;;;22.70;55.50;;;;;;5099177;28;20523;-80
2023/07/07 06:50:51;;;;;;;7.77;3.23;;;22.40;56.00;;;;;;5099363;28;20665;-79
2023/07/07 06:53:19;;;;;;;5.50;2.77;;;22.20;56.20;;;;;;5101972;28;20448;-79
2023/07/07 06:55:48;;;;;;;7.33;3.07;;;22.00;56.60;;;;;;5108058;28;20459;-79
2023/07/07 06:58:17;;;;;;;7.50;2.70;;;21.90;57.00;;;;;;5101126;28;20456;-79
2023/07/07 07:00:46;;;;;;;7.27;3.47;;;21.80;57.40;;;;;;5103966;28;20563;-79
2023/07/07 07:03:14;;;;;;;8.40;3.47;;;21.70;57.70;;;;;;5107642;28;20494;-79
2023/07/07 07:05:42;;;;;;;8.40;3.30;;;21.60;57.90;;;;;;5097987;28;20854;-79
2023/07/07 07:08:10;;;;;;;8.70;3.23;;;21.60;58.20;;;;;;5106536;28;20457;-78
2023/07/07 07:10:38;;;;;;;9.13;3.03;;;21.60;58.40;;;;;;5104726;28;20462;-81
2023/07/07 07:13:08;;;;;;;7.40;3.70;;;21.50;58.70;;;;;;5100445;28;20461;-79
2023/07/07 07:15:36;;;;;;;8.47;3.20;;;21.60;58.80;;;;;;5107134;28;21146;-80
2023/07/07 07:18:04;;;;;;;8.50;3.37;;;21.60;58.90;;;;;;5106866;28;20456;-79
2023/07/07 07:20:32;;;;;;;8.60;3.00;;;21.70;59.00;;;;;;5102133;28;20456;-80
2023/07/07 07:23:00;;;;;;;7.70;3.13;;;21.70;59.10;;;;;;5098134;28;20509;-79
2023/07/07 07:25:29;;;;;;;7.23;3.10;;;21.80;59.20;;;;;;5098128;28;20452;-80
2023/07/07 07:27:57;;;;;;;7.53;3.13;;;21.80;59.30;;;;;;5101408;27;20487;-79
2023/07/07 07:30:26;;;;;;;7.47;3.00;;;21.80;59.30;;;;;;5098349;27;20456;-80
2023/07/07 07:32:54;;;;;;;7.30;2.90;;;21.90;59.50;;;;;;5099322;28;20443;-79
2023/07/07 07:35:22;;;;;;;6.23;3.00;;;21.90;59.50;;;;;;5102501;27;20816;-80
2023/07/07 07:37:50;;;;;;;7.83;3.17;;;21.90;59.40;;;;;;5101994;28;20455;-80
2023/07/07 07:40:18;;;;;;;7.37;2.67;;;22.00;59.40;;;;;;5104284;28;20456;-81
2023/07/07 07:42:46;;;;;;;10.57;2.80;;;22.10;59.40;;;;;;5101628;28;20486;-79
2023/07/07 07:45:18;;;;;;;7.80;2.90;;;22.10;59.40;;;;;;5106273;28;20967;-80
2023/07/07 07:47:48;;;;;;;6.97;3.03;;;22.20;59.20;;;;;;5110801;28;20547;-80
2023/07/07 07:50:17;;;;;;;8.67;3.40;;;22.20;59.20;;;;;;5105986;28;20449;-80
2023/07/07 07:52:45;;;;;;;10.70;3.30;;;22.30;59.20;;;;;;5105329;28;20828;-79
2023/07/07 07:55:15;;;;;;;6.07;3.10;;;22.30;59.00;;;;;;5104285;28;20963;-80
2023/07/07 07:57:43;;;;;;;7.00;2.87;;;22.40;58.90;;;;;;5108655;28;20452;-80
2023/07/07 08:00:12;;;;;;;7.37;3.20;;;22.50;58.90;;;;;;5105926;28;20455;-79
2023/07/07 08:02:40;;;;;;;7.43;2.87;;;22.60;58.80;;;;;;5100941;28;20499;-80
2023/07/07 08:05:13;;;;;;;7.90;3.33;;;22.60;58.60;;;;;;5097994;28;20544;-80
2023/07/07 08:07:41;;;;;;;7.27;3.10;;;22.70;58.50;;;;;;5107322;28;20444;-79
2023/07/07 08:10:10;;;;;;;9.57;2.90;;;22.70;58.30;;;;;;5105566;28;20461;-79
2023/07/07 08:12:38;;;;;;;9.40;3.10;;;22.80;58.20;;;;;;5097199;28;21164;-80
2023/07/07 08:15:07;;;;;;;6.67;3.30;;;22.90;58.20;;;;;;5106513;28;20483;-79
2023/07/07 08:17:35;;;;;;;7.80;3.00;;;23.00;57.90;;;;;;5105835;28;20451;-81
2023/07/07 08:20:05;;;;;;;7.20;3.10;;;23.00;57.90;;;;;;5095296;28;20966;-79
2023/07/07 08:22:34;;;;;;;6.50;3.10;;;23.10;57.70;;;;;;5100470;28;20761;-81
2023/07/07 08:25:02;;;;;;;9.50;3.70;;;23.20;57.50;;;;;;5106936;28;20455;-80
2023/07/07 08:27:33;;;;;;;7.53;3.30;;;23.20;57.30;;;;;;5099273;28;20545;-79
2023/07/07 08:30:07;;;;;;;6.10;3.13;;;23.30;57.20;;;;;;5102710;28;20480;-81
2023/07/07 08:32:35;;;;;;;7.20;3.43;;;23.40;57.20;;;;;;5104470;28;20724;-80
2023/07/07 08:35:03;;;;;;;6.23;3.10;;;23.40;57.10;;;;;;5101443;28;20452;-79
2023/07/07 08:37:53;;;;;;;9.10;3.00;;;23.50;56.90;;;;;;5103384;28;20468;-80
2023/07/07 08:40:25;;;;;;;7.23;3.30;;;23.60;56.60;;;;;;5093618;28;20484;-79
2023/07/07 08:42:53;;;;;;;7.43;2.90;;;23.60;56.50;;;;;;5103642;28;20467;-79
2023/07/07 08:45:23;;;;;;;9.20;4.03;;;23.70;56.50;;;;;;5097914;28;20452;-79
2023/07/07 08:48:02;;;;;;;8.03;3.50;;;23.70;56.30;;;;;;5102243;28;20460;-80
2023/07/07 08:50:37;;;;;;;10.03;3.73;;;23.80;55.90;;;;;;5099665;28;20463;-80
2023/07/07 08:53:41;;;;;;;8.33;3.47;;;23.90;55.70;;;;;;5099966;28;20444;-79
2023/07/07 08:56:18;;;;;;;7.30;3.80;;;24.00;55.50;;;;;;5098885;28;20457;-81
2023/07/07 08:58:54;;;;;;;10.53;3.37;;;24.00;55.30;;;;;;5099084;28;20456;-79
2023/07/07 09:01:36;;;;;;;7.73;3.43;;;24.10;55.20;;;;;;5097103;28;20468;-79
2023/07/07 09:04:19;;;;;;;9.37;3.97;;;24.10;55.10;;;;;;5098656;28;20857;-80
2023/07/07 09:06:59;;;;;;;8.17;4.03;;;24.10;55.00;;;;;;5100751;28;20867;-80
2023/07/07 09:09:47;;;;;;;7.33;3.40;;;24.20;54.90;;;;;;5104979;28;20455;-81
2023/07/07 09:12:29;;;;;;;8.70;3.80;;;24.30;54.80;;;;;;5097037;28;20441;-78
2023/07/07 09:15:00;;;;;;;9.37;3.80;;;24.30;54.80;;;;;;5102210;28;20459;-82
2023/07/07 09:17:33;;;;;;;9.70;3.67;;;24.40;54.60;;;;;;5107860;28;20460;-80
2023/07/07 09:20:04;;;;;;;7.20;3.60;;;24.40;54.50;;;;;;5100285;28;20488;-78
2023/07/07 09:22:39;;;;;;;7.63;3.57;;;24.50;54.50;;;;;;5098778;28;20471;-77
2023/07/07 09:25:15;;;;;;;10.33;4.00;;;24.60;54.60;;;;;;5100127;28;21196;-79
2023/07/07 09:27:47;;;;;;;9.20;3.70;;;24.70;54.30;;;;;;5101211;28;20456;-79
2023/07/07 09:30:25;;;;;;;7.87;3.60;;;24.80;54.10;;;;;;5099178;28;20464;-80
2023/07/07 09:32:54;;;;;;;7.73;3.77;;;24.90;53.90;;;;;;5097933;28;20456;-78
2023/07/07 09:35:26;;;;;;;7.63;3.43;;;24.90;53.80;;;;;;5099679;28;20460;-80
2023/07/07 09:38:04;;;;;;;7.30;3.80;;;25.00;53.60;;;;;;5101410;28;20918;-80
2023/07/07 09:40:40;;;;;;;7.60;3.80;;;25.10;53.60;;;;;;5102338;28;20461;-80
2023/07/07 09:43:16;;;;;;;7.70;3.93;;;25.10;53.40;;;;;;5102786;28;21288;-80
2023/07/07 09:45:58;;;;;;;8.50;3.93;;;25.10;53.40;;;;;;5101087;28;20454;-80
2023/07/07 09:48:36;;;;;;;8.03;4.03;;;25.20;53.20;;;;;;5103121;28;20833;-79
2023/07/07 09:51:12;;;;;;;7.93;3.90;;;25.20;53.20;;;;;;5100069;28;20943;-80
2023/07/07 09:53:42;;;;;;;10.30;4.47;;;25.20;53.50;;;;;;5101969;28;20451;-79
2023/07/07 09:56:24;;;;;;;11.10;4.17;;;25.20;53.70;;;;;;5111089;28;21064;-80
2023/07/07 09:59:02;;;;;;;8.70;4.47;;;25.20;53.70;;;;;;5099848;28;20452;-80
2023/07/07 10:01:35;;;;;;;10.10;4.60;;;25.30;53.50;;;;;;5099620;28;21033;-81
2023/07/07 10:04:08;;;;;;;11.60;5.80;;;25.50;53.20;;;;;;5096845;28;20479;-80
2023/07/07 10:06:39;;;;;;;8.73;4.27;;;25.50;53.00;;;;;;5103643;28;20469;-80
2023/07/07 10:09:11;;;;;;;7.63;4.17;;;25.60;53.10;;;;;;5108460;28;20979;-80
2023/07/07 10:11:41;;;;;;;11.50;4.90;;;25.70;53.00;;;;;;5105686;28;20474;-79
2023/07/07 10:14:16;;;;;;;9.00;4.50;;;25.70;52.90;;;;;;5101496;28;20510;-79
2023/07/07 10:16:57;;;;;;;8.77;4.63;;;25.80;52.70;;;;;;5101340;28;20647;-82
2023/07/07 10:19:25;;;;;;;8.97;5.17;;;25.80;52.50;;;;;;5105564;28;20522;-80
2023/07/07 10:21:54;;;;;;;9.23;4.80;;;25.80;52.50;;;;;;5099955;28;20466;-81
2023/07/07 10:24:22;;;;;;;9.13;4.47;;;25.90;52.60;;;;;;5100568;28;20468;-80
2023/07/07 10:26:50;;;;;;;9.03;4.43;;;25.90;52.30;;;;;;5104138;28;20463;-82
2023/07/07 10:29:23;;;;;;;12.63;4.50;;;25.90;52.40;;;;;;5106558;28;20455;-80
2023/07/07 10:31:53;;;;;;;9.60;4.40;;;25.90;52.30;;;;;;5104877;28;21209;-80
2023/07/07 10:34:33;;;;;;;8.93;4.90;;;26.00;52.30;;;;;;5103670;28;21003;-79
2023/07/07 10:37:01;;;;;;;7.87;4.63;;;26.00;51.70;;;;;;5106085;28;20455;-81
2023/07/07 10:39:30;;;;;;;8.80;5.03;;;26.10;51.20;;;;;;5102221;28;20453;-80
2023/07/07 10:41:58;;;;;;;9.13;4.80;;;26.20;50.90;;;;;;5110488;28;20500;-82
2023/07/07 10:44:28;;;;;;;9.70;4.80;;;26.30;50.80;;;;;;5104194;28;20501;-80
2023/07/07 10:46:56;;;;;;;8.17;4.90;;;26.40;50.60;;;;;;5106542;28;20460;-80
2023/07/07 10:49:26;;;;;;;8.73;5.43;;;26.40;50.60;;;;;;5106375;28;20460;-80
2023/07/07 10:52:12;;;;;;;12.40;5.17;;;26.40;50.40;;;;;;5101315;28;20809;-81
2023/07/07 10:54:48;;;;;;;11.23;5.13;;;26.50;50.40;;;;;;5101751;28;20451;-82
2023/07/07 10:57:29;;;;;;;8.73;4.97;;;26.40;50.40;;;;;;5106154;28;20957;-81
2023/07/07 11:00:07;;;;;;;10.20;5.40;;;26.40;50.40;;;;;;5105161;28;20470;-78
2023/07/07 11:02:51;;;;;;;8.17;4.63;;;26.40;50.50;;;;;;5101788;28;20534;-81
2023/07/07 11:05:37;;;;;;;7.87;4.60;;;26.40;50.60;;;;;;5100522;28;20487;-81
2023/07/07 11:08:31;;;;;;;8.80;5.03;;;26.50;50.40;;;;;;5099496;28;20460;-81
2023/07/07 11:11:13;;;;;;;9.20;5.30;;;26.60;50.80;;;;;;5105752;28;20960;-82
2023/07/07 11:14:04;;;;;;;10.60;4.83;;;26.70;51.00;;;;;;5096085;27;20994;-80
2023/07/07 11:16:46;;;;;;;9.80;4.87;;;26.70;50.90;;;;;;5085032;28;20456;-80
2023/07/07 11:19:31;;;;;;;8.30;5.10;;;26.70;51.20;;;;;;5100360;28;20474;-78
2023/07/07 11:22:12;;;;;;;9.53;5.20;;;26.80;51.20;;;;;;5100157;28;20453;-81
2023/07/07 11:24:47;;;;;;;8.30;4.17;;;26.80;50.80;;;;;;5100903;28;21282;-81
2023/07/07 11:27:55;;;;;;;11.40;4.43;;;26.90;50.10;;;;;;5106206;28;20459;-81
2023/07/07 11:30:34;;;;;;;9.70;4.90;;;27.00;49.90;;;;;;5105161;28;20464;-79
2023/07/07 11:33:17;;;;;;;8.67;4.60;;;27.10;49.90;;;;;;5099809;28;20460;-77
2023/07/07 11:35:57;;;;;;;12.77;5.23;;;27.20;49.80;;;;;;5098278;28;20469;-78
2023/07/07 11:38:54;;;;;;;11.57;4.87;;;27.30;49.90;;;;;;5106820;28;20649;-79
2023/07/07 11:41:38;;;;;;;9.23;5.20;;;27.40;49.50;;;;;;5102913;28;20455;-81
2023/07/07 11:44:31;;;;;;;8.63;4.70;;;27.40;49.50;;;;;;5108658;28;20493;-81
2023/07/07 11:47:12;;;;;;;8.70;4.20;;;27.50;49.30;;;;;;5100757;28;20848;-81
2023/07/07 11:49:56;;;;;;;10.40;4.40;;;27.50;49.30;;;;;;5108613;28;20512;-81
2023/07/07 11:52:35;;;;;;;10.80;5.00;;;27.50;49.30;;;;;;5101953;28;20465;-79
2023/07/07 11:55:18;;;;;;;11.00;5.30;;;27.60;49.10;;;;;;5104504;28;20460;-81
2023/07/07 11:57:57;;;;;;;12.50;5.83;;;27.70;48.80;;;;;;5101386;28;20456;-81
2023/07/07 12:00:37;;;;;;;10.30;5.47;;;27.70;48.80;;;;;;5098346;28;20454;-79
2023/07/07 12:03:37;;;;;;;12.73;5.33;;;27.70;49.00;;;;;;5099021;28;20457;-80
2023/07/07 12:06:16;;;;;;;8.17;4.60;;;27.70;48.60;;;;;;5067503;28;20463;-81
2023/07/07 12:08:50;;;;;;;9.73;4.97;;;27.70;48.30;;;;;;5101499;28;20448;-82
2023/07/07 12:11:21;;;;;;;9.20;5.00;;;27.60;48.20;;;;;;5104946;28;20452;-81
2023/07/07 12:14:05;;;;;;;10.13;5.37;;;27.60;48.20;;;;;;5102708;28;20460;-81
2023/07/07 12:16:39;;;;;;;9.63;5.77;;;27.60;48.20;;;;;;5101672;28;20459;-80
2023/07/07 12:19:16;;;;;;;9.13;5.03;;;27.50;47.80;;;;;;5101937;28;20525;-80
2023/07/07 12:21:50;;;;;;;9.37;5.40;;;27.50;47.80;;;;;;5101267;28;20819;-81
2023/07/07 12:24:24;;;;;;;10.70;5.50;;;27.50;48.30;;;;;;5101990;28;20476;-81
2023/07/07 12:27:04;;;;;;;10.90;4.63;;;27.60;48.30;;;;;;5099779;28;20562;-79
2023/07/07 12:29:32;;;;;;;7.80;4.30;;;27.60;48.00;;;;;;5102480;28;20679;-81
2023/07/07 12:32:02;;;;;;;10.37;5.43;;;27.70;47.90;;;;;;5101821;28;20479;-80
2023/07/07 12:42:33;;;;;;;7.83;4.80;;;28.00;46.90;;;;;;5104486;28;20467;-80
2023/07/07 12:45:10;;;;;;;11.93;5.87;;;28.00;47.00;;;;;;5113423;27;20579;-79
2023/07/07 12:47:41;;;;;;;10.20;5.10;;;28.00;47.20;;;;;;5096692;28;20542;-80
2023/07/07 12:50:26;;;;;;;9.03;5.03;;;28.00;47.20;;;;;;5098751;28;20514;-80
2023/07/07 12:52:58;;;;;;;7.90;4.60;;;28.10;46.80;;;;;;5101290;28;20506;-80
2023/07/07 12:55:29;;;;;;;7.90;4.40;;;28.10;46.90;;;;;;5104480;28;20456;-81
2023/07/07 12:58:30;;;;;;;9.20;5.07;;;28.20;46.70;;;;;;5105312;28;20555;-80
2023/07/07 13:01:25;;;;;;;11.40;5.30;;;28.20;46.60;;;;;;5102579;28;21296;-80
2023/07/07 13:04:13;;;;;;;9.83;5.10;;;28.20;46.70;;;;;;5098267;28;20456;-78
2023/07/07 13:06:47;;;;;;;11.00;5.60;;;28.20;46.60;;;;;;5105047;28;20456;-80
2023/07/07 13:09:24;;;;;;;11.93;5.30;;;28.30;46.50;;;;;;5097926;28;20503;-78
2023/07/07 13:16:27;;;;;;;9.50;5.80;;;28.40;46.60;;;;;;5094950;28;20577;-80
2023/07/07 13:18:57;;;;;;;8.30;4.90;;;28.40;46.40;;;;;;5091943;27;20469;-79
2023/07/07 13:21:32;;;;;;;10.00;6.20;;;28.30;46.70;;;;;;5099390;28;21005;-78
2023/07/07 13:24:02;;;;;;;10.20;5.40;;;28.40;46.90;;;;;;5085661;28;20571;-80
2023/07/07 13:26:31;;;;;;;10.50;5.77;;;28.40;46.80;;;;;;5087908;28;20479;-78